Airport View

Enter AWOS ICAO identifier for current METAR.

ex. KFNL

KPWT 191321Z AUTO 00000KT 6SM BR BKN003 OVC006 01/01 A3024 RMK AO2 UPE1257 FZRANO

19 Feb 2019 13:50

Frequency: 121.2

Phone: 360-674-2811

Other Area AWOS: KTIW - KSEA - KBFI - KSHN

TAF KPWT 191135Z 1912/2012 VRB03KT P6SM VCSH SCT005 OVC010 TEMPO 1912/1916 3SM BR BKN003 OVC010 FM192000 20011KT 5SM -RA BR OVC012 FM200800 19009KT 6SM -SHRA BR BKN014 BKN027